EBBR/BRU METAR and TAF weather

Enter ICAO airport designator
Station Type Date Time Source
EBBR METAR 2019/12/08 03:50 UTC NOAA

EBBR 080350Z 22021G33KT 9999 SCT020 BKN030 10/06 Q1006 TEMPO 4000 RA RADZ BKN011


Station Type Date Time Source
EBBR Decoded METAR 2019/12/08 03:50 UTC NOAA

Bruxelles National, Belgium (EBBR) 50-54N 004-32E 58M
Dec 07, 2019 - 10:50 PM EST / 2019.12.08 0350 UTC
Wind: from the SW (220 degrees) at 24 MPH (21 KT) gusting to 38 MPH (33 KT):0
Visibility: greater than 7 mile(s):0
Sky conditions: mostly cloudy
Temperature: 50 F (10 C)
Dew Point: 42 F (6 C)
Relative Humidity: 76%
Pressure (altimeter): 29.71 in. Hg (1006 hPa)
ob: EBBR 080350Z 22021G33KT 9999 SCT020 BKN030 10/06 Q1006 TEMPO 4000 RA RADZ BKN011
cycle: 4

Station Type Date Time Source
EBBR TAF 2019/12/07 18:28 UTC NOAA

TAF EBBR 071710Z 0718/0824 22009KT 9999 FEW015 BKN035
BECMG 0802/0804 22018G30KT BKN011
TEMPO 0806/0810 4000 RA
BECMG 0810/0812 24016KT FEW018 PROB40
TEMPO 0816/0820 23016G26KT 3500 SHRA BKN014CB

Example: see airport list